This is the latest recevied weather packets stored in our database for station/object KI6PPU. If no packets are shown the sender has not sent any weather packets the latest 10 day(s).
| Time | Temp. | Humidity | Pressure | Rain* | Wind** | Luminosity | Snow |
|---|---|---|---|---|---|---|---|
| 1777514361 | 21.11° C | 51% | 1017.2 hPa | 0 mm | - | 26 W/m² | - |
| 1777514057 | 21.67° C | 48% | 1017.4 hPa | 0 mm | - | 28 W/m² | - |
| 1777513755 | 22.22° C | 51% | 1017.5 hPa | 0 mm | - | 29 W/m² | - |
| 1777513452 | 22.22° C | 48% | 1017.2 hPa | 0 mm | - | 31 W/m² | - |
| 1777513148 | 22.22° C | 46% | 1017.5 hPa | 0 mm | - | 33 W/m² | - |
| 1777512844 | 22.22° C | 46% | 1017.3 hPa | 0 mm | - | 33 W/m² | - |
| 1777512541 | 22.78° C | 47% | 1017.4 hPa | 0 mm | - | 34 W/m² | - |
| 1777512237 | 22.78° C | 48% | 1017.4 hPa | 0 mm | - | 35 W/m² | - |
| 1777511934 | 22.78° C | 44% | 1017.5 hPa | 0 mm | - | 37 W/m² | - |
| 1777511632 | 22.78° C | 45% | 1017.6 hPa | 0 mm | - | 38 W/m² | - |
| 1777511330 | 23.33° C | 44% | 1017.6 hPa | 0 mm | - | 39 W/m² | - |
| 1777511025 | 23.33° C | 41% | 1017.5 hPa | 0 mm | - | 40 W/m² | - |
| 1777510722 | 23.33° C | 44% | 1017.4 hPa | 0 mm | - | 42 W/m² | - |
| 1777510418 | 23.89° C | 41% | 1017.5 hPa | 0 mm | - | 43 W/m² | - |
| 1777510114 | 23.89° C | 42% | 1017.5 hPa | 0 mm | - | 45 W/m² | - |
| 1777509811 | 25° C | 43% | 1017.5 hPa | 0 mm | - | 296 W/m² | - |
| 1777509507 | 25° C | 43% | 1017.6 hPa | 0 mm | - | 284 W/m² | - |
| 1777509205 | 25° C | 42% | 1017.6 hPa | 0 mm | - | 245 W/m² | - |
| 1777508901 | 25° C | 43% | 1017.6 hPa | 0 mm | - | 358 W/m² | - |
| 1777508598 | 25° C | 42% | 1017.6 hPa | 0 mm | - | 378 W/m² | - |
| 1777508296 | 25.56° C | 44% | 1017.8 hPa | 0 mm | - | 399 W/m² | - |
| 1777507993 | 25.56° C | 44% | 1017.7 hPa | 0 mm | - | 376 W/m² | - |
| 1777507689 | 25° C | 40% | 1017.7 hPa | 0 mm | - | 208 W/m² | - |
| 1777507386 | 25.56° C | 42% | 1017.9 hPa | 0 mm | - | 424 W/m² | - |
| 1777507084 | 25° C | 40% | 1017.9 hPa | 0 mm | - | 478 W/m² | - |
* Rain latest hour (hover to see other rain measurements)
** Current wind speed in m/s (hover to see current wind gust speed)